sensor_id;sensor_type;location;lat;lon;timestamp;P1;durP1;ratioP1;P2;durP2;ratioP2
14774;SDS011;7479;47.042;15.160;2023-05-23T05:07:17;14.70;;;8.90;;
14774;SDS011;7479;47.042;15.160;2023-05-23T05:12:10;17.00;;;9.07;;
14774;SDS011;7479;47.042;15.160;2023-05-23T05:17:04;19.50;;;9.03;;
14774;SDS011;7479;47.042;15.160;2023-05-23T05:22:10;14.23;;;9.27;;
14774;SDS011;7479;47.042;15.160;2023-05-23T05:27:05;10.53;;;8.47;;
14774;SDS011;7479;47.042;15.160;2023-05-23T05:32:00;10.73;;;8.25;;
14774;SDS011;7479;47.042;15.160;2023-05-23T05:36:54;12.87;;;7.80;;
14774;SDS011;7479;47.042;15.160;2023-05-23T05:41:49;14.15;;;8.18;;
14774;SDS011;7479;47.042;15.160;2023-05-23T05:46:44;9.55;;;8.07;;
14774;SDS011;7479;47.042;15.160;2023-05-23T05:51:39;11.70;;;7.95;;
14774;SDS011;7479;47.042;15.160;2023-05-23T05:56:32;13.75;;;8.07;;
14774;SDS011;7479;47.042;15.160;2023-05-23T06:01:26;12.18;;;8.23;;
14774;SDS011;7479;47.042;15.160;2023-05-23T06:06:21;10.40;;;8.55;;
14774;SDS011;7479;47.042;15.160;2023-05-23T06:11:14;12.18;;;7.47;;
14774;SDS011;7479;47.042;15.160;2023-05-23T06:16:08;13.82;;;8.30;;
14774;SDS011;7479;47.042;15.160;2023-05-23T06:21:03;12.80;;;8.05;;
14774;SDS011;7479;47.042;15.160;2023-05-23T06:25:59;10.18;;;6.90;;
14774;SDS011;7479;47.042;15.160;2023-05-23T06:30:53;8.35;;;7.38;;
14774;SDS011;7479;47.042;15.160;2023-05-23T06:35:46;9.50;;;6.40;;
14774;SDS011;7479;47.042;15.160;2023-05-23T06:40:40;9.40;;;6.63;;
14774;SDS011;7479;47.042;15.160;2023-05-23T06:45:35;8.00;;;6.40;;
14774;SDS011;7479;47.042;15.160;2023-05-23T06:50:28;10.18;;;6.47;;
14774;SDS011;7479;47.042;15.160;2023-05-23T06:55:22;9.23;;;6.97;;
14774;SDS011;7479;47.042;15.160;2023-05-23T07:00:16;7.15;;;6.30;;
14774;SDS011;7479;47.042;15.160;2023-05-23T07:05:25;10.35;;;7.93;;
14774;SDS011;7479;47.042;15.160;2023-05-23T07:10:20;8.85;;;6.47;;
14774;SDS011;7479;47.042;15.160;2023-05-23T07:15:18;7.60;;;6.90;;
14774;SDS011;7479;47.042;15.160;2023-05-23T07:20:21;8.80;;;6.82;;
14774;SDS011;7479;47.042;15.160;2023-05-23T07:25:22;7.13;;;6.43;;
14774;SDS011;7479;47.042;15.160;2023-05-23T07:30:17;7.55;;;6.75;;
14774;SDS011;7479;47.042;15.160;2023-05-23T07:35:11;7.35;;;6.38;;
14774;SDS011;7479;47.042;15.160;2023-05-23T07:40:05;7.57;;;6.70;;
14774;SDS011;7479;47.042;15.160;2023-05-23T07:45:02;7.65;;;6.05;;
14774;SDS011;7479;47.042;15.160;2023-05-23T07:49:56;7.40;;;6.70;;
14774;SDS011;7479;47.042;15.160;2023-05-23T07:54:53;9.07;;;6.72;;
14774;SDS011;7479;47.042;15.160;2023-05-23T07:59:46;8.30;;;6.45;;
14774;SDS011;7479;47.042;15.160;2023-05-23T08:04:42;10.25;;;6.15;;
14774;SDS011;7479;47.042;15.160;2023-05-23T08:09:35;8.30;;;6.75;;
14774;SDS011;7479;47.042;15.160;2023-05-23T08:14:30;7.70;;;6.40;;
14774;SDS011;7479;47.042;15.160;2023-05-23T08:19:56;8.15;;;6.03;;
14774;SDS011;7479;47.042;15.160;2023-05-23T08:24:51;8.57;;;6.28;;
14774;SDS011;7479;47.042;15.160;2023-05-23T08:29:46;7.68;;;6.07;;
14774;SDS011;7479;47.042;15.160;2023-05-23T08:34:40;8.00;;;6.07;;
14774;SDS011;7479;47.042;15.160;2023-05-23T08:39:34;12.23;;;6.88;;
14774;SDS011;7479;47.042;15.160;2023-05-23T08:45:01;9.23;;;6.13;;
14774;SDS011;7479;47.042;15.160;2023-05-23T08:49:55;6.25;;;5.50;;
14774;SDS011;7479;47.042;15.160;2023-05-23T08:54:52;8.52;;;6.38;;
14774;SDS011;7479;47.042;15.160;2023-05-23T08:59:46;6.40;;;5.80;;
14774;SDS011;7479;47.042;15.160;2023-05-23T09:04:41;7.88;;;5.97;;
14774;SDS011;7479;47.042;15.160;2023-05-23T09:09:40;6.82;;;6.03;;
14774;SDS011;7479;47.042;15.160;2023-05-23T09:14:38;7.13;;;5.70;;
14774;SDS011;7479;47.042;15.160;2023-05-23T09:19:33;8.05;;;6.03;;
14774;SDS011;7479;47.042;15.160;2023-05-23T09:24:46;6.47;;;5.82;;
14774;SDS011;7479;47.042;15.160;2023-05-23T09:29:44;7.53;;;6.40;;
14774;SDS011;7479;47.042;15.160;2023-05-23T09:34:41;8.50;;;6.50;;
14774;SDS011;7479;47.042;15.160;2023-05-23T09:39:47;9.20;;;6.40;;
14774;SDS011;7479;47.042;15.160;2023-05-23T09:44:40;7.72;;;6.25;;
14774;SDS011;7479;47.042;15.160;2023-05-23T09:49:35;6.93;;;6.32;;
14774;SDS011;7479;47.042;15.160;2023-05-23T09:54:30;7.10;;;6.40;;
14774;SDS011;7479;47.042;15.160;2023-05-23T09:59:24;8.10;;;5.78;;
14774;SDS011;7479;47.042;15.160;2023-05-23T10:04:20;7.97;;;6.40;;
14774;SDS011;7479;47.042;15.160;2023-05-23T10:09:16;7.47;;;6.68;;
14774;SDS011;7479;47.042;15.160;2023-05-23T10:14:10;10.27;;;6.38;;
14774;SDS011;7479;47.042;15.160;2023-05-23T10:19:06;14.40;;;7.20;;
14774;SDS011;7479;47.042;15.160;2023-05-23T10:24:04;11.02;;;7.95;;
14774;SDS011;7479;47.042;15.160;2023-05-23T10:29:01;11.20;;;8.45;;
14774;SDS011;7479;47.042;15.160;2023-05-23T10:33:59;10.90;;;8.43;;
14774;SDS011;7479;47.042;15.160;2023-05-23T10:39:01;10.93;;;8.75;;
14774;SDS011;7479;47.042;15.160;2023-05-23T10:44:04;8.40;;;7.60;;
14774;SDS011;7479;47.042;15.160;2023-05-23T10:49:01;9.95;;;7.75;;
14774;SDS011;7479;47.042;15.160;2023-05-23T10:54:01;8.80;;;7.93;;
14774;SDS011;7479;47.042;15.160;2023-05-23T10:59:04;11.15;;;7.80;;
14774;SDS011;7479;47.042;15.160;2023-05-23T11:03:57;8.52;;;7.38;;
14774;SDS011;7479;47.042;15.160;2023-05-23T11:09:01;9.18;;;6.30;;
14774;SDS011;7479;47.042;15.160;2023-05-23T11:13:58;6.28;;;5.68;;
14774;SDS011;7479;47.042;15.160;2023-05-23T11:24:18;8.15;;;4.78;;
14774;SDS011;7479;47.042;15.160;2023-05-23T11:29:12;5.47;;;4.78;;
14774;SDS011;7479;47.042;15.160;2023-05-23T11:34:08;8.05;;;4.60;;
14774;SDS011;7479;47.042;15.160;2023-05-23T11:39:05;9.57;;;4.53;;
14774;SDS011;7479;47.042;15.160;2023-05-23T11:43:59;7.05;;;4.35;;
14774;SDS011;7479;47.042;15.160;2023-05-23T11:48:53;5.55;;;5.05;;
14774;SDS011;7479;47.042;15.160;2023-05-23T11:53:46;9.85;;;6.43;;
14774;SDS011;7479;47.042;15.160;2023-05-23T11:58:41;12.80;;;6.85;;
14774;SDS011;7479;47.042;15.160;2023-05-23T12:03:43;9.13;;;5.68;;
14774;SDS011;7479;47.042;15.160;2023-05-23T12:08:38;9.15;;;5.97;;
14774;SDS011;7479;47.042;15.160;2023-05-23T12:13:31;9.68;;;5.88;;
14774;SDS011;7479;47.042;15.160;2023-05-23T12:18:28;7.68;;;6.00;;
14774;SDS011;7479;47.042;15.160;2023-05-23T12:23:24;11.18;;;7.35;;
14774;SDS011;7479;47.042;15.160;2023-05-23T12:28:21;9.27;;;7.10;;
14774;SDS011;7479;47.042;15.160;2023-05-23T12:33:28;13.32;;;9.30;;
14774;SDS011;7479;47.042;15.160;2023-05-23T12:38:21;9.73;;;8.02;;
14774;SDS011;7479;47.042;15.160;2023-05-23T12:43:19;10.10;;;7.30;;
14774;SDS011;7479;47.042;15.160;2023-05-23T12:48:13;9.43;;;7.22;;
14774;SDS011;7479;47.042;15.160;2023-05-23T12:53:08;8.27;;;7.25;;
14774;SDS011;7479;47.042;15.160;2023-05-23T12:58:02;8.70;;;7.72;;
14774;SDS011;7479;47.042;15.160;2023-05-23T13:02:55;8.50;;;7.68;;
14774;SDS011;7479;47.042;15.160;2023-05-23T13:07:48;9.13;;;7.93;;
14774;SDS011;7479;47.042;15.160;2023-05-23T13:12:43;10.45;;;8.30;;
14774;SDS011;7479;47.042;15.160;2023-05-23T13:17:36;9.45;;;8.55;;
14774;SDS011;7479;47.042;15.160;2023-05-23T13:22:30;8.52;;;7.72;;
14774;SDS011;7479;47.042;15.160;2023-05-23T13:27:23;8.57;;;7.50;;
14774;SDS011;7479;47.042;15.160;2023-05-23T13:32:18;9.32;;;8.15;;
14774;SDS011;7479;47.042;15.160;2023-05-23T13:37:12;12.32;;;8.93;;
14774;SDS011;7479;47.042;15.160;2023-05-23T13:42:06;9.82;;;7.97;;
14774;SDS011;7479;47.042;15.160;2023-05-23T13:47:08;10.70;;;8.43;;
14774;SDS011;7479;47.042;15.160;2023-05-23T13:52:05;11.75;;;9.25;;
14774;SDS011;7479;47.042;15.160;2023-05-23T13:56:59;13.60;;;8.93;;
14774;SDS011;7479;47.042;15.160;2023-05-23T14:01:52;9.75;;;8.75;;
14774;SDS011;7479;47.042;15.160;2023-05-23T14:06:46;10.85;;;8.82;;
14774;SDS011;7479;47.042;15.160;2023-05-23T14:11:41;10.77;;;7.70;;
14774;SDS011;7479;47.042;15.160;2023-05-23T14:16:35;8.45;;;7.18;;
14774;SDS011;7479;47.042;15.160;2023-05-23T14:21:28;9.32;;;7.63;;
14774;SDS011;7479;47.042;15.160;2023-05-23T14:26:22;9.50;;;7.70;;
14774;SDS011;7479;47.042;15.160;2023-05-23T14:31:18;10.80;;;7.53;;
14774;SDS011;7479;47.042;15.160;2023-05-23T14:36:12;9.98;;;7.85;;
14774;SDS011;7479;47.042;15.160;2023-05-23T14:41:05;9.55;;;8.57;;
14774;SDS011;7479;47.042;15.160;2023-05-23T14:45:59;10.05;;;8.55;;
14774;SDS011;7479;47.042;15.160;2023-05-23T14:50:54;9.40;;;8.38;;
14774;SDS011;7479;47.042;15.160;2023-05-23T14:55:47;13.15;;;8.70;;
14774;SDS011;7479;47.042;15.160;2023-05-23T15:00:40;10.63;;;8.48;;
14774;SDS011;7479;47.042;15.160;2023-05-23T15:05:37;9.35;;;8.35;;
14774;SDS011;7479;47.042;15.160;2023-05-23T15:10:32;11.50;;;8.93;;
14774;SDS011;7479;47.042;15.160;2023-05-23T15:15:26;9.68;;;7.95;;
14774;SDS011;7479;47.042;15.160;2023-05-23T15:20:27;9.23;;;8.32;;
14774;SDS011;7479;47.042;15.160;2023-05-23T15:25:21;10.30;;;9.25;;
14774;SDS011;7479;47.042;15.160;2023-05-23T15:30:38;8.02;;;7.22;;
14774;SDS011;7479;47.042;15.160;2023-05-23T15:35:31;10.70;;;6.85;;
14774;SDS011;7479;47.042;15.160;2023-05-23T15:40:25;9.82;;;6.35;;
14774;SDS011;7479;47.042;15.160;2023-05-23T15:45:19;7.00;;;6.30;;
14774;SDS011;7479;47.042;15.160;2023-05-23T15:50:14;9.30;;;7.07;;
14774;SDS011;7479;47.042;15.160;2023-05-23T15:55:09;10.07;;;7.35;;
14774;SDS011;7479;47.042;15.160;2023-05-23T16:00:03;11.20;;;7.65;;
14774;SDS011;7479;47.042;15.160;2023-05-23T16:05:02;9.63;;;7.57;;
14774;SDS011;7479;47.042;15.160;2023-05-23T16:09:57;8.25;;;7.38;;
14774;SDS011;7479;47.042;15.160;2023-05-23T16:14:51;10.43;;;7.95;;
14774;SDS011;7479;47.042;15.160;2023-05-23T16:19:44;8.65;;;7.32;;
14774;SDS011;7479;47.042;15.160;2023-05-23T16:24:37;10.68;;;7.78;;
14774;SDS011;7479;47.042;15.160;2023-05-23T16:29:33;13.32;;;9.07;;
14774;SDS011;7479;47.042;15.160;2023-05-23T16:34:28;11.32;;;7.00;;
14774;SDS011;7479;47.042;15.160;2023-05-23T16:39:22;9.13;;;7.97;;
14774;SDS011;7479;47.042;15.160;2023-05-23T16:44:15;8.93;;;6.88;;
14774;SDS011;7479;47.042;15.160;2023-05-23T16:49:10;10.13;;;6.97;;
14774;SDS011;7479;47.042;15.160;2023-05-23T16:54:03;9.23;;;7.32;;
14774;SDS011;7479;47.042;15.160;2023-05-23T16:58:57;9.73;;;5.90;;
14774;SDS011;7479;47.042;15.160;2023-05-23T17:03:51;7.57;;;6.38;;
14774;SDS011;7479;47.042;15.160;2023-05-23T17:08:46;8.00;;;6.22;;
14774;SDS011;7479;47.042;15.160;2023-05-23T17:13:40;7.90;;;7.10;;
14774;SDS011;7479;47.042;15.160;2023-05-23T17:18:33;8.65;;;7.50;;
14774;SDS011;7479;47.042;15.160;2023-05-23T17:23:27;11.10;;;8.02;;
14774;SDS011;7479;47.042;15.160;2023-05-23T17:28:22;9.57;;;8.38;;
14774;SDS011;7479;47.042;15.160;2023-05-23T17:33:16;10.70;;;8.40;;
14774;SDS011;7479;47.042;15.160;2023-05-23T17:38:09;13.45;;;9.07;;
14774;SDS011;7479;47.042;15.160;2023-05-23T17:43:03;9.93;;;8.93;;
14774;SDS011;7479;47.042;15.160;2023-05-23T17:47:59;10.48;;;8.35;;
14774;SDS011;7479;47.042;15.160;2023-05-23T17:52:54;8.45;;;7.43;;
14774;SDS011;7479;47.042;15.160;2023-05-23T17:57:48;12.35;;;10.60;;
14774;SDS011;7479;47.042;15.160;2023-05-23T18:02:41;9.35;;;7.90;;
14774;SDS011;7479;47.042;15.160;2023-05-23T18:07:36;8.43;;;7.13;;
14774;SDS011;7479;47.042;15.160;2023-05-23T18:12:30;8.60;;;7.25;;
14774;SDS011;7479;47.042;15.160;2023-05-23T18:17:23;11.50;;;7.50;;
14774;SDS011;7479;47.042;15.160;2023-05-23T18:22:17;9.02;;;7.47;;
14774;SDS011;7479;47.042;15.160;2023-05-23T18:27:13;8.95;;;7.80;;
14774;SDS011;7479;47.042;15.160;2023-05-23T18:32:06;8.95;;;8.05;;
